Baie-Trinite, Canada
Current Conditions -  °F | °C
As of 4:00 AM on Wednesday 28 Jan 2015 (Local Time) from CYBC Reporting Station
Overcast Overcast  
Wind Chill: -7°   Ceiling: 14000
Heat Index:   Visibility: 9mi
Dew Point: -8°   Wind: 7mph
Humidity: 56%   Direction: 350°N
Pressure: 30.02"   Gusts: 17mph
Location:  49.43°N, 67.28°W
Report Text: CYBC 280900Z AUTO 35006G15KT 310V020 9SM OVC140 M15/M22 A3002 RMK SLP168
Loading
Personal Weather Stations






























Interactive Weather Map New forecast layout! Learn more

10-Day Weather Forecast

Advertisements
Track Severe Weather on mobile